ADDS TAF Board (Experimental) INFO Settings
IDs:

KMCI - Kansas City Intl, MO, US

Issued at 2320 UTC 25 Sep 2016
Updated at: 0012 UTC 26 Sep 2016
Time2353Z 26/01Z 26/02Z 26/03Z 26/04Z 26/05Z 26/06Z 26/07Z 26/08Z 26/09Z 26/10Z 26/11Z 26/12Z 26/13Z
Type OBS PRVL PRVL PRVL PRVL PRVL PRVL PRVL PRVL PRVL PRVL PRVL PRVL PRVL
VIS 10 >6 >6 >6 >6 >6 >6 >6 >6 >6 >6 >6 >6 >6
CIG 130 -- -- -- -- -- -- -- -- -- -- -- -- --
Cover BKN SCT SCT SCT SCT SCT SCT SCT SCT SCT SCT SCT SCT SCT
FltCat VFR VFR VFR VFR VFR VFR VFR VFR VFR VFR VFR VFR VFR VFR
WX -- -- -- -- -- -- -- -- -- -- -- -- -- --
WDir 250 290 290 290 290 290 290 290 290 290 290 290 290 290
WSpd 4 6 6 6 6 6 6 6 6 6 6 6 6 6
WGst -- -- -- -- -- -- -- -- -- -- -- -- -- --
R01/19
XWnd 3 6 6 6 6 6 6 6 6 6 6 6 6 6
HWnd -2 1 1 1 1 1 1 1 1 1 1 1 1 1
R09/27
XWnd -2 1 1 1 1 1 1 1 1 1 1 1 1 1
HWnd -4 -6 -6 -6 -6 -6 -6 -6 -6 -6 -6 -6 -6 -6

NOTE: TEMPO conditions in [brackets]. Keep in mind TEMPO conditions might be better (lower impact) than prevailing conditions.

Raw TAF
KMCI 252320Z 2600/2624 29006KT P6SM SCT150

Raw METAR
KMCI 252353Z 25004KT 10SM BKN130 BKN230 17/13 A3014 RMK AO2 SLP202 T01720133 10183 20167 53007
KMCI 252253Z 30004KT 10SM BKN130 BKN230 18/12 A3014 RMK AO2 SLP198 T01830122
KMCI 252153Z 31004KT 10SM FEW080 BKN120 OVC220 18/13 A3013 RMK AO2 SLP195 T01830128

METAR Board
Radar Display
Forecast Discussion

TAF Board Legend

Potential Impact
Threat None Slight Moderate High
Visibility (sm) ≥5.1 5.1>X≥3 3>X≥1 <1
Ceiling (100 ft) ≥30.1 30.1>X≥10 10>X≥5 <5
Wind Speed (kt) <10 10≤X<20 20≤X<30 ≥30
Wind Gust (kt) <15 15≤X<25 25≤X<35 ≥35
Weather No Wx Reported VCTS,-TS,-FZRA,SN TS,FZRA +TS,+FZRA,+SN